createdAt,value
2019-02-12T00:00:22.809Z,3.21
2019-02-12T00:02:50.663Z,3.19
2019-02-12T00:05:17.252Z,3.06
2019-02-12T00:07:43.903Z,3.05
2019-02-12T00:10:10.460Z,3.15
2019-02-12T00:12:37.042Z,3.33
2019-02-12T00:15:05.491Z,3.26
2019-02-12T00:17:32.134Z,3.16
2019-02-12T00:19:58.717Z,3.22
2019-02-12T00:22:25.358Z,3.40
2019-02-12T00:24:51.936Z,3.30
2019-02-12T00:27:18.535Z,3.19
2019-02-12T00:29:45.246Z,3.17
2019-02-12T00:32:11.908Z,3.24
2019-02-12T00:34:38.566Z,3.37
2019-02-12T00:37:05.139Z,3.11
2019-02-12T00:39:31.710Z,3.26
2019-02-12T00:41:58.358Z,3.18
2019-02-12T00:44:24.974Z,3.22
2019-02-12T00:46:51.523Z,3.19
2019-02-12T00:49:18.064Z,3.15
2019-02-12T00:51:44.717Z,3.14
2019-02-12T00:54:11.321Z,3.17
2019-02-12T00:56:37.913Z,3.04
2019-02-12T00:59:04.466Z,3.00
2019-02-12T01:01:31.636Z,3.17
2019-02-12T01:03:58.270Z,3.11
2019-02-12T01:06:24.902Z,3.11
2019-02-12T01:08:51.582Z,3.07
2019-02-12T01:11:18.140Z,3.03
2019-02-12T01:13:44.765Z,3.10
2019-02-12T01:16:11.387Z,3.02
2019-02-12T01:18:39.172Z,2.89
2019-02-12T01:21:06.218Z,2.82
2019-02-12T01:23:36.471Z,2.90
2019-02-12T01:26:03.794Z,2.72
2019-02-12T01:28:31.175Z,2.71
2019-02-12T01:30:57.849Z,2.78
2019-02-12T01:33:24.462Z,2.58
2019-02-12T01:35:51.095Z,2.70
2019-02-12T01:38:17.649Z,2.74
2019-02-12T01:40:45.769Z,2.96
2019-02-12T01:43:12.703Z,2.66
2019-02-12T01:45:39.323Z,2.90
2019-02-12T01:48:06.337Z,2.73
2019-02-12T01:50:32.883Z,2.96
2019-02-12T01:52:59.443Z,2.89
2019-02-12T01:55:26.015Z,2.85
2019-02-12T01:57:52.711Z,2.90
2019-02-12T02:00:19.272Z,2.91
2019-02-12T02:02:45.879Z,2.87
2019-02-12T02:05:12.497Z,2.70
2019-02-12T02:07:39.070Z,2.81
2019-02-12T02:10:10.984Z,2.80
2019-02-12T02:12:37.607Z,2.90
2019-02-12T02:15:08.638Z,2.85
2019-02-12T02:17:36.423Z,2.80
2019-02-12T02:20:07.695Z,2.80
2019-02-12T02:22:34.293Z,2.66
2019-02-12T02:25:00.866Z,2.70
2019-02-12T02:27:27.492Z,2.86
2019-02-12T02:29:54.050Z,2.81
2019-02-12T02:32:20.656Z,2.58
2019-02-12T02:34:47.249Z,2.63
2019-02-12T02:37:13.936Z,2.56
2019-02-12T02:39:41.676Z,2.59
2019-02-12T02:42:11.194Z,2.56
2019-02-12T02:44:37.790Z,2.57
2019-02-12T02:47:04.769Z,2.73
2019-02-12T02:49:31.336Z,2.55
2019-02-12T02:51:57.936Z,2.61
2019-02-12T02:54:24.477Z,2.59
2019-02-12T02:56:51.064Z,2.44
2019-02-12T02:59:18.354Z,2.47
2019-02-12T03:01:44.953Z,2.57
2019-02-12T03:04:11.514Z,2.61
2019-02-12T03:06:38.088Z,2.56
2019-02-12T03:09:06.795Z,2.56
2019-02-12T03:11:37.221Z,2.40
2019-02-12T03:14:03.793Z,2.48
2019-02-12T03:16:30.389Z,2.43
2019-02-12T03:18:56.954Z,2.43
2019-02-12T03:21:23.651Z,2.36
2019-02-12T03:23:50.216Z,2.22
2019-02-12T03:26:16.878Z,2.30
2019-02-12T03:28:43.488Z,2.22
2019-02-12T03:31:10.042Z,2.13
2019-02-12T03:33:36.720Z,2.30
2019-02-12T03:36:03.373Z,2.17
2019-02-12T03:38:29.988Z,2.11
2019-02-12T03:40:56.619Z,2.04
2019-02-12T03:43:23.669Z,2.19
2019-02-12T03:45:50.207Z,2.18
2019-02-12T03:48:16.782Z,1.96
2019-02-12T03:50:43.338Z,2.03
2019-02-12T03:53:09.969Z,2.05
2019-02-12T03:55:36.534Z,1.89
2019-02-12T03:58:03.173Z,2.02
2019-02-12T04:00:29.808Z,2.09
2019-02-12T04:03:01.439Z,2.03
2019-02-12T04:05:28.100Z,2.22
2019-02-12T04:07:54.869Z,1.88
2019-02-12T04:10:21.492Z,2.12
2019-02-12T04:12:48.055Z,2.12
2019-02-12T04:15:16.383Z,1.95
2019-02-12T04:17:42.950Z,1.97
2019-02-12T04:20:09.598Z,2.00
2019-02-12T04:22:36.204Z,2.02
2019-02-12T04:25:03.356Z,2.00
2019-02-12T04:27:29.892Z,1.94
2019-02-12T04:29:56.532Z,1.98
2019-02-12T04:32:23.094Z,1.91
2019-02-12T04:34:49.754Z,1.89
2019-02-12T04:37:16.316Z,2.05
2019-02-12T04:39:42.888Z,1.98
2019-02-12T04:42:09.522Z,1.91
2019-02-12T04:44:36.132Z,2.03
2019-02-12T04:47:02.738Z,2.09
2019-02-12T04:49:29.291Z,1.94
2019-02-12T04:51:55.832Z,1.99
2019-02-12T04:54:22.466Z,1.63
2019-02-12T04:56:49.092Z,1.95
2019-02-12T04:59:15.708Z,1.84
2019-02-12T05:01:42.361Z,1.95
2019-02-12T05:04:08.931Z,2.02
2019-02-12T05:06:35.493Z,2.01
2019-02-12T05:09:07.768Z,1.95
2019-02-12T05:11:34.472Z,1.96
2019-02-12T05:14:01.068Z,1.99
2019-02-12T05:16:27.621Z,1.96
2019-02-12T05:18:55.926Z,1.91
2019-02-12T05:21:22.670Z,1.75
2019-02-12T05:23:49.276Z,1.78
2019-02-12T05:26:15.926Z,1.79
2019-02-12T05:28:42.615Z,1.68
2019-02-12T05:31:09.221Z,1.56
2019-02-12T05:33:35.829Z,1.67
2019-02-12T05:36:02.444Z,1.78
2019-02-12T05:38:29.038Z,1.68
2019-02-12T05:40:55.705Z,1.65
2019-02-12T05:43:22.299Z,1.72
2019-02-12T05:45:49.007Z,1.62
2019-02-12T05:48:15.614Z,1.71
2019-02-12T05:50:42.405Z,1.79
2019-02-12T05:53:09.103Z,1.87
2019-02-12T05:55:35.650Z,1.89
2019-02-12T05:58:02.266Z,1.74
2019-02-12T06:00:30.743Z,1.53
2019-02-12T06:02:57.323Z,1.69
2019-02-12T06:05:28.651Z,1.71
2019-02-12T06:07:58.036Z,1.80
2019-02-12T06:10:26.073Z,1.93
2019-02-12T06:12:52.761Z,1.95
2019-02-12T06:15:19.863Z,1.62
2019-02-12T06:17:46.442Z,1.67
2019-02-12T06:20:13.006Z,1.78
2019-02-12T06:22:39.659Z,1.58
2019-02-12T06:25:08.266Z,1.80
2019-02-12T06:27:34.735Z,1.85
2019-02-12T06:30:01.434Z,1.93
2019-02-12T06:32:27.986Z,2.06
2019-02-12T06:34:54.672Z,1.92
2019-02-12T06:37:21.277Z,1.95
2019-02-12T06:39:47.834Z,1.74
2019-02-12T06:42:14.470Z,1.73
2019-02-12T06:44:41.242Z,1.72
2019-02-12T06:47:07.978Z,1.76
2019-02-12T06:49:34.549Z,1.98
2019-02-12T06:52:01.127Z,1.73
2019-02-12T06:54:27.688Z,1.94
2019-02-12T06:56:54.361Z,1.78
2019-02-12T06:59:20.920Z,1.93
2019-02-12T07:01:47.617Z,1.97
2019-02-12T07:04:14.423Z,1.95
2019-02-12T07:06:46.850Z,1.94
2019-02-12T07:09:17.257Z,1.87
2019-02-12T07:11:49.736Z,2.00
2019-02-12T07:14:20.114Z,1.98
2019-02-12T07:16:52.512Z,2.12
2019-02-12T07:19:24.906Z,2.03
2019-02-12T07:21:57.331Z,1.90
2019-02-12T07:24:29.692Z,1.86
2019-02-12T07:27:02.086Z,2.03
2019-02-12T07:29:34.425Z,2.19
2019-02-12T07:32:04.949Z,2.04
2019-02-12T07:34:35.415Z,2.24
2019-02-12T07:37:05.923Z,2.15
2019-02-12T07:39:38.204Z,2.24
2019-02-12T07:42:08.708Z,2.23
2019-02-12T07:44:41.143Z,1.98
2019-02-12T07:47:13.485Z,1.97
2019-02-12T07:49:45.892Z,2.27
2019-02-12T07:52:18.202Z,2.18
2019-02-12T07:54:50.554Z,2.31
2019-02-12T07:57:23.006Z,2.41
2019-02-12T07:59:55.440Z,2.46
2019-02-12T08:02:27.789Z,2.29
2019-02-12T08:05:00.204Z,2.20
2019-02-12T08:07:32.760Z,2.29
2019-02-12T08:10:06.393Z,2.17
2019-02-12T08:12:38.738Z,2.23
2019-02-12T08:15:09.159Z,2.39
2019-02-12T08:17:41.587Z,2.31
2019-02-12T08:20:15.026Z,2.32
2019-02-12T08:22:47.521Z,2.51
2019-02-12T08:25:19.814Z,2.68
2019-02-12T08:27:52.214Z,2.64
2019-02-12T08:30:24.515Z,2.41
2019-02-12T08:32:57.048Z,2.38
2019-02-12T08:35:29.369Z,2.61
2019-02-12T08:37:59.934Z,2.63
2019-02-12T08:40:30.415Z,2.57
2019-02-12T08:43:02.739Z,2.50
2019-02-12T08:45:35.132Z,2.58
2019-02-12T08:48:05.646Z,2.70
2019-02-12T08:50:38.094Z,2.29
2019-02-12T08:53:10.504Z,2.38
2019-02-12T08:55:42.837Z,2.49
2019-02-12T08:58:15.165Z,2.53
2019-02-12T09:00:47.658Z,2.73
2019-02-12T09:03:20.097Z,2.58
2019-02-12T09:05:52.573Z,2.62
2019-02-12T09:08:24.945Z,2.88
2019-02-12T09:10:58.405Z,2.82
2019-02-12T09:13:31.695Z,2.80
2019-02-12T09:16:04.045Z,2.94
2019-02-12T09:18:34.487Z,2.85
2019-02-12T09:21:06.936Z,2.86
2019-02-12T09:23:37.390Z,2.73
2019-02-12T09:26:09.755Z,3.06
2019-02-12T09:28:42.100Z,2.97
2019-02-12T09:31:14.409Z,3.10
2019-02-12T09:33:45.133Z,3.01
2019-02-12T09:36:17.473Z,2.96
2019-02-12T09:38:48.001Z,2.78
2019-02-12T09:41:20.270Z,2.88
2019-02-12T09:43:52.629Z,2.92
2019-02-12T09:46:23.044Z,2.96
2019-02-12T09:48:55.497Z,3.04
2019-02-12T09:51:27.796Z,2.90
2019-02-12T09:54:08.426Z,2.68
2019-02-12T09:56:34.503Z,2.96
2019-02-12T09:59:06.848Z,3.00
2019-02-12T10:01:39.159Z,3.11
2019-02-12T10:04:09.693Z,3.06
2019-02-12T10:06:42.052Z,3.13
2019-02-12T10:09:14.497Z,3.17
2019-02-12T10:11:47.021Z,3.21
2019-02-12T10:14:19.506Z,3.01
2019-02-12T10:16:49.985Z,2.94
2019-02-12T10:19:22.329Z,3.10
2019-02-12T10:21:54.710Z,3.17
2019-02-12T10:24:27.174Z,3.24
2019-02-12T10:26:59.520Z,3.06
2019-02-12T10:29:31.930Z,3.04
2019-02-12T10:31:58.507Z,3.26
2019-02-12T10:34:25.074Z,2.98
2019-02-12T10:36:51.668Z,3.00
2019-02-12T10:39:18.682Z,3.18
2019-02-12T10:41:45.243Z,3.09
2019-02-12T10:44:11.779Z,3.31
2019-02-12T10:46:38.413Z,3.24
2019-02-12T10:49:04.993Z,3.18
2019-02-12T10:51:31.542Z,3.10
2019-02-12T10:53:58.164Z,3.19
2019-02-12T10:56:24.836Z,2.92
2019-02-12T10:58:51.532Z,3.12
2019-02-12T11:01:18.082Z,3.15
2019-02-12T11:04:41.097Z,3.07
2019-02-12T11:07:07.823Z,3.03
2019-02-12T11:09:34.437Z,3.03
2019-02-12T11:12:01.023Z,2.92
2019-02-12T11:14:27.634Z,3.14
2019-02-12T11:16:54.202Z,3.10
2019-02-12T11:19:20.804Z,3.24
2019-02-12T11:21:47.377Z,3.27
2019-02-12T11:24:14.070Z,2.97
2019-02-12T11:26:40.814Z,2.87
2019-02-12T11:29:07.409Z,2.84
2019-02-12T11:31:34.042Z,3.01
2019-02-12T11:34:00.652Z,2.69
2019-02-12T11:36:27.197Z,2.88
2019-02-12T11:38:53.855Z,2.93
2019-02-12T11:41:20.514Z,2.93
2019-02-12T11:43:47.099Z,2.94
2019-02-12T11:46:13.700Z,3.03
2019-02-12T11:48:40.356Z,2.95
2019-02-12T11:51:06.950Z,2.85
2019-02-12T11:53:33.654Z,2.80
2019-02-12T11:56:00.250Z,2.85
2019-02-12T11:58:26.796Z,2.81
2019-02-12T12:00:55.314Z,2.88
2019-02-12T12:03:21.917Z,2.94
2019-02-12T12:05:49.162Z,2.70
2019-02-12T12:08:15.823Z,2.78
2019-02-12T12:11:39.760Z,2.82
2019-02-12T12:14:06.439Z,2.85
2019-02-12T12:16:32.997Z,2.83
2019-02-12T12:18:59.584Z,2.91
2019-02-12T12:21:27.308Z,2.92
2019-02-12T12:23:53.870Z,3.02
2019-02-12T12:27:19.833Z,3.03
2019-02-12T12:29:46.499Z,3.04
2019-02-12T12:32:13.134Z,3.15
2019-02-12T12:34:39.762Z,3.09
2019-02-12T12:37:06.489Z,3.18
2019-02-12T12:39:33.062Z,3.14
2019-02-12T12:42:01.757Z,3.22
2019-02-12T12:44:28.570Z,3.24
2019-02-12T12:46:57.038Z,3.30
2019-02-12T12:49:23.647Z,3.19
2019-02-12T12:51:50.271Z,3.13
2019-02-12T12:54:16.843Z,3.13
2019-02-12T12:56:43.396Z,3.17
2019-02-12T12:59:10.048Z,3.12
2019-02-12T13:01:36.711Z,3.33
2019-02-12T13:04:03.286Z,3.21
2019-02-12T13:06:29.870Z,3.33
2019-02-12T13:08:56.517Z,3.18
2019-02-12T13:11:23.063Z,3.25
2019-02-12T13:13:50.742Z,3.35
2019-02-12T13:16:17.350Z,3.33
2019-02-12T13:18:43.922Z,3.19
2019-02-12T13:21:10.498Z,3.32
2019-02-12T13:23:37.117Z,3.26
2019-02-12T13:26:03.725Z,3.15
2019-02-12T13:28:30.380Z,3.21
2019-02-12T13:30:57.103Z,3.14
2019-02-12T13:33:23.736Z,3.01
2019-02-12T13:35:50.339Z,3.14
2019-02-12T13:38:16.888Z,3.27
2019-02-12T13:40:43.460Z,3.28
2019-02-12T13:43:10.253Z,3.24
2019-02-12T13:45:36.919Z,3.15
2019-02-12T13:48:03.537Z,3.43
2019-02-12T13:50:30.168Z,3.55
2019-02-12T13:52:56.700Z,3.47
2019-02-12T13:55:23.276Z,3.48
2019-02-12T13:57:49.894Z,3.48
2019-02-12T14:00:18.199Z,3.33
2019-02-12T14:02:44.880Z,3.40
2019-02-12T14:05:16.559Z,3.40
2019-02-12T14:07:43.275Z,3.39
2019-02-12T14:10:10.121Z,3.48
2019-02-12T14:12:36.674Z,3.52
2019-02-12T14:15:08.708Z,3.36
2019-02-12T14:17:35.301Z,3.41
2019-02-12T14:20:04.555Z,3.59
2019-02-12T14:22:31.216Z,3.47
2019-02-12T14:24:57.940Z,3.29
2019-02-12T14:27:25.498Z,3.43
2019-02-12T14:29:52.067Z,3.44
2019-02-12T14:32:18.670Z,3.59
2019-02-12T14:34:45.285Z,3.63
2019-02-12T14:37:11.833Z,3.44
2019-02-12T14:39:38.417Z,3.62
2019-02-12T14:42:05.045Z,3.53
2019-02-12T14:44:31.629Z,3.47
2019-02-12T14:46:58.226Z,3.44
2019-02-12T14:49:24.851Z,3.41
2019-02-12T14:51:51.432Z,3.25
2019-02-12T14:54:18.027Z,3.28
2019-02-12T14:56:45.058Z,3.38
2019-02-12T14:59:12.799Z,3.27
2019-02-12T15:01:39.395Z,3.12
2019-02-12T15:04:05.955Z,3.04
2019-02-12T15:06:32.597Z,2.76
2019-02-12T15:08:59.211Z,2.93
2019-02-12T15:11:25.839Z,2.96
2019-02-12T15:13:52.424Z,2.99
2019-02-12T15:16:18.988Z,3.04
2019-02-12T15:18:45.562Z,3.08
2019-02-12T15:21:12.191Z,3.02
2019-02-12T15:23:38.776Z,3.02
2019-02-12T15:26:05.304Z,3.05
2019-02-12T15:28:31.948Z,2.96
2019-02-12T15:30:58.517Z,3.01
2019-02-12T15:33:27.011Z,2.77
2019-02-12T15:35:53.578Z,2.82
2019-02-12T15:38:20.154Z,2.94
2019-02-12T15:40:46.982Z,2.99
2019-02-12T15:43:13.646Z,2.97
2019-02-12T15:45:40.319Z,2.78
2019-02-12T15:48:06.914Z,2.88
2019-02-12T15:50:33.490Z,2.93
2019-02-12T15:53:00.019Z,2.92
2019-02-12T15:55:26.611Z,2.88
2019-02-12T15:57:53.270Z,2.70
2019-02-12T16:00:20.711Z,2.69
2019-02-12T16:02:48.609Z,2.85
2019-02-12T16:05:15.285Z,2.83
2019-02-12T16:07:42.697Z,2.75
2019-02-12T16:10:17.074Z,2.84
2019-02-12T16:12:44.162Z,2.92
2019-02-12T16:15:13.654Z,2.91
2019-02-12T16:17:40.246Z,2.92
2019-02-12T16:20:07.570Z,2.76
2019-02-12T16:22:34.256Z,2.71
2019-02-12T16:25:01.200Z,2.94
2019-02-12T16:27:27.939Z,2.83
2019-02-12T16:29:54.489Z,2.75
2019-02-12T16:32:21.086Z,2.79
2019-02-12T16:34:47.690Z,2.96
2019-02-12T16:37:14.341Z,2.86
2019-02-12T16:39:41.075Z,2.71
2019-02-12T16:42:07.766Z,2.57
2019-02-12T16:44:34.590Z,2.67
2019-02-12T16:47:01.387Z,2.68
2019-02-12T16:49:28.081Z,2.70
2019-02-12T16:51:56.560Z,2.41
2019-02-12T16:54:23.131Z,2.65
2019-02-12T16:56:49.737Z,2.65
2019-02-12T16:59:16.353Z,2.56
2019-02-12T17:01:42.977Z,2.62
2019-02-12T17:04:09.728Z,2.57
2019-02-12T17:06:36.341Z,2.39
2019-02-12T17:09:04.138Z,2.34
2019-02-12T17:11:31.728Z,2.40
2019-02-12T17:16:45.778Z,2.26
2019-02-12T17:19:12.553Z,2.38
2019-02-12T17:21:39.121Z,2.31
2019-02-12T17:24:06.008Z,2.10
2019-02-12T17:26:32.577Z,2.27
2019-02-12T17:28:59.238Z,2.11
2019-02-12T17:31:25.921Z,2.07
2019-02-12T17:33:53.648Z,2.14
2019-02-12T17:36:20.466Z,2.12
2019-02-12T17:38:47.165Z,2.22
2019-02-12T17:41:13.717Z,2.00
2019-02-12T17:43:40.507Z,1.96
2019-02-12T17:46:07.108Z,1.92
2019-02-12T17:48:33.701Z,1.96
2019-02-12T17:51:00.253Z,1.90
2019-02-12T17:53:26.926Z,1.85
2019-02-12T17:55:53.560Z,1.90
2019-02-12T17:58:20.218Z,1.97
2019-02-12T18:00:46.826Z,1.86
2019-02-12T18:03:13.463Z,1.89
2019-02-12T18:05:40.099Z,1.70
2019-02-12T18:08:06.760Z,1.68
2019-02-12T18:10:33.390Z,1.76
2019-02-12T18:12:59.909Z,1.77
2019-02-12T18:15:26.607Z,1.72
2019-02-12T18:17:53.354Z,1.63
2019-02-12T18:20:26.354Z,1.63
2019-02-12T18:22:48.957Z,1.69
2019-02-12T18:25:15.542Z,1.53
2019-02-12T18:27:42.418Z,1.50
2019-02-12T18:30:14.547Z,1.52
2019-02-12T18:32:41.312Z,1.55
2019-02-12T18:35:08.358Z,1.45
2019-02-12T18:37:35.132Z,1.43
2019-02-12T18:40:05.719Z,1.54
2019-02-12T18:42:32.327Z,1.41
2019-02-12T18:44:58.923Z,1.42
2019-02-12T18:47:29.460Z,1.34
2019-02-12T18:49:56.527Z,1.20
2019-02-12T18:52:23.102Z,1.26
2019-02-12T18:54:49.906Z,1.15
2019-02-12T18:57:16.511Z,1.14
2019-02-12T18:59:43.305Z,1.17
2019-02-12T19:02:10.715Z,1.20
2019-02-12T19:04:37.473Z,1.28
2019-02-12T19:07:04.073Z,1.26
2019-02-12T19:09:33.492Z,1.27
2019-02-12T19:12:00.065Z,1.13
2019-02-12T19:14:26.689Z,1.04
2019-02-12T19:16:53.396Z,1.03
2019-02-12T19:19:19.980Z,1.11
2019-02-12T19:21:46.622Z,0.88
2019-02-12T19:25:09.645Z,1.03
2019-02-12T19:27:36.323Z,1.09
2019-02-12T19:30:08.735Z,1.10
2019-02-12T19:32:35.359Z,1.07
2019-02-12T19:35:05.337Z,1.00
2019-02-12T19:37:31.941Z,0.97
2019-02-12T19:39:58.587Z,1.00
2019-02-12T19:42:25.187Z,1.03
2019-02-12T19:44:51.794Z,0.98
2019-02-12T19:47:18.662Z,0.77
2019-02-12T19:49:45.337Z,0.91
2019-02-12T19:52:12.081Z,0.89
2019-02-12T19:54:38.661Z,0.76
2019-02-12T19:57:05.197Z,0.81
2019-02-12T19:59:32.918Z,0.81
2019-02-12T20:01:59.586Z,0.81
2019-02-12T20:04:26.199Z,0.97
2019-02-12T20:06:52.855Z,0.90
2019-02-12T20:09:20.033Z,0.76
2019-02-12T20:11:46.615Z,0.91
2019-02-12T20:14:13.286Z,0.73
2019-02-12T20:16:40.070Z,0.58
2019-02-12T20:19:06.853Z,0.72
2019-02-12T20:21:33.529Z,0.71
2019-02-12T20:24:00.638Z,0.68
2019-02-12T20:26:27.406Z,0.64
2019-02-12T20:28:53.958Z,0.62
2019-02-12T20:31:20.522Z,0.74
2019-02-12T20:33:47.255Z,0.54
2019-02-12T20:36:14.127Z,0.67
2019-02-12T20:38:40.851Z,0.51
2019-02-12T20:41:07.873Z,0.32
2019-02-12T20:43:34.552Z,0.39
2019-02-12T20:46:02.865Z,0.46
2019-02-12T20:48:30.508Z,0.43
2019-02-12T20:51:11.709Z,0.43
2019-02-12T20:53:38.574Z,0.48
2019-02-12T20:56:05.569Z,0.38
2019-02-12T20:58:32.194Z,0.45
2019-02-12T21:00:58.784Z,0.53
2019-02-12T21:03:25.582Z,0.45
2019-02-12T21:05:55.249Z,0.45
2019-02-12T21:08:22.359Z,0.35
2019-02-12T21:10:48.975Z,0.41
2019-02-12T21:13:20.919Z,0.50
2019-02-12T21:15:57.322Z,0.32
2019-02-12T21:18:24.100Z,0.29
2019-02-12T21:20:51.208Z,0.31
2019-02-12T21:23:17.768Z,0.25
2019-02-12T21:25:44.397Z,0.30
2019-02-12T21:28:11.228Z,0.39
2019-02-12T21:30:42.197Z,0.41
2019-02-12T21:33:08.861Z,0.31
2019-02-12T21:35:41.987Z,0.36
2019-02-12T21:38:10.987Z,0.32
2019-02-12T21:40:37.569Z,0.09
2019-02-12T21:43:04.546Z,0.25
2019-02-12T21:45:33.144Z,0.29
2019-02-12T21:47:59.916Z,0.28
2019-02-12T21:50:26.594Z,0.23
2019-02-12T21:52:53.246Z,0.12
2019-02-12T21:55:21.039Z,0.21
2019-02-12T21:57:47.779Z,0.08
2019-02-12T22:00:16.534Z,0.10
2019-02-12T22:02:43.380Z,0.17
2019-02-12T22:05:13.045Z,0.26
2019-02-12T22:07:39.741Z,0.14
2019-02-12T22:10:12.185Z,0.07
2019-02-12T22:12:38.973Z,0.12
2019-02-12T22:15:10.175Z,-0.01
2019-02-12T22:17:38.582Z,-0.03
2019-02-12T22:20:09.879Z,0.03
2019-02-12T22:22:36.495Z,-0.13
2019-02-12T22:25:05.966Z,-0.11
2019-02-12T22:27:40.074Z,-0.10
2019-02-12T22:30:01.124Z,-0.01
2019-02-12T22:32:27.727Z,-0.11
2019-02-12T22:34:54.279Z,-0.06
2019-02-12T22:37:20.877Z,0.06
2019-02-12T22:39:47.622Z,-0.24
2019-02-12T22:42:14.189Z,-0.13
2019-02-12T22:44:40.781Z,0.04
2019-02-12T22:47:07.442Z,-0.04
2019-02-12T22:49:34.240Z,-0.12
2019-02-12T22:52:00.986Z,-0.17
2019-02-12T22:54:27.592Z,-0.10
2019-02-12T22:56:54.165Z,0.02
2019-02-12T22:59:20.755Z,-0.03
2019-02-12T23:01:47.382Z,-0.05
2019-02-12T23:04:13.994Z,-0.08
2019-02-12T23:06:40.635Z,-0.08
2019-02-12T23:09:09.177Z,-0.06
2019-02-12T23:11:35.854Z,-0.17
2019-02-12T23:14:02.450Z,-0.22
2019-02-12T23:16:29.125Z,-0.24
2019-02-12T23:18:55.730Z,-0.26
2019-02-12T23:21:22.408Z,-0.25
2019-02-12T23:23:48.972Z,-0.29
2019-02-12T23:26:15.525Z,-0.31
2019-02-12T23:28:42.367Z,-0.37
2019-02-12T23:31:08.963Z,-0.28
2019-02-12T23:33:35.548Z,-0.30
2019-02-12T23:36:02.526Z,-0.46
2019-02-12T23:38:29.036Z,-0.49
2019-02-12T23:40:56.103Z,-0.46
2019-02-12T23:43:22.693Z,-0.49
2019-02-12T23:45:49.268Z,-0.43
2019-02-12T23:48:15.901Z,-0.49
2019-02-12T23:50:42.606Z,-0.55
2019-02-12T23:53:09.253Z,-0.58
2019-02-12T23:55:35.876Z,-0.63
2019-02-12T23:58:05.951Z,-0.61
